Saturday, October 25, 2014
14:35 UTC
  |  Log In   |  Register Free
Airport Search:

Ellington Airport
(KEFD)

FAA data valid effective September 18, 2014 - November 13, 2014 (unless otherwise noted).

 
 
 
 
 
 
 
 
 
 
 
 
 
 

Current Aviation Weather for Ellington Airport (KEFD)

The most recent METAR observation for KEFD was updated at: 1409
METAR Summary (Translated METAR)
KEFD
251250Z 00000KT 7SM CLR 16/13 A3017
KHOU
251353Z 00000KT 10SM CLR 19/14 A3017 RMK AO2 SLP220 T01890139
(6.7 nm NW from KEFD)
KLVJ
251353Z AUTO 00000KT 7SM CLR 19/16 A3018 RMK AO2 SLP219 T01940156
(6.8 nm SW from KEFD)
TAF Summary (Translated TAF)
KEFD
2512/2618 VRB06KT 9999 SKC QNH3004INS TX27/2520Z TN12/2611Z
KHOU
(6.7 nm NW from KEFD)
251136Z 2512/2612 VRB04KT P6SM SKC
  Airport Weather Conditions for KEFD

 Current Weather at EFD
61° F
Fair
North winds at 0.0 mph
EFD NOAA Radar

Pressure: 30.17 in
Humidity: 83%
Wind: Calm
Dew Point: 55.4°F
Visibility: 7.00 mi


Airport Weather Forecast for KEFD

Translated METAR and TAF for KEFD
Translated METAR for KEFD (1430 UTC 25 October 2014)
found at http://aviationweather.gov/adds/metars/
 
METAR text: KEFD 251350Z 00000KT 10SM CLR 16/14 A3018
Conditions at: KEFD (HOUSTON/ELLINGTO, TX, US) observed 1350 UTC 25 October 2014
Temperature: 16.0°C (61°F)
Dewpoint: 14.0°C (57°F) [RH = 88%]
Pressure (altimeter): 30.18 inches Hg (1022.1 mb)
Winds: calm
Visibility: 10 or more miles (16+ km)
Ceiling: at least 12,000 feet AGL
Clouds: sky clear below 12,000 feet AGL
Weather: no significant weather observed at this time
Translated TAF for KEFD
Forecast for: KEFD (HOUSTON/ELLINGTO, TX, US)
TAF Text: TAF KEFD 2512/2618 VRB06KT 9999 SKC QNH3004INS TX27/2520Z TN12/2611Z
Forecast period: 1200 UTC 25 October 2014 to 1800 UTC 26 October 2014
Forecast type: FROM: standard forecast or significant change
Winds: variable direction winds at 7 MPH (6 knots; 3.1 m/s)
Visibility: 6 or more miles (10+ km)
Clouds: clear skies
Weather: no significant weather forecast for this period

Find All Airport Services Find A Hotel Find A Rental Car Find A Golf Course Find A Restaurant $100 Hamburger



FBO's on the Field
FBO Company Facility Photos Services Transportation Aviation Fuel Prices: Prices include tax
Catering Weather Repair Courtesy Rental Type 100LL JetA JetA+ MOGAS 8087
 
Southwest Airport Services

This FBO has not yet been rated
FS:Texaco
Last Updated: Oct-16
Login to update fuel prices
SS:
Contact Southwest Airport ServicesMore FBO Information
 
Add another FBO Facility Photos Catering Weather Repair Courtesy Rental Type 100LL JetA JetA+ MOGAS 8087
Services Transportation Aviation Fuel Prices: Prices include tax


model-print
model-print
model-print
model-print